createdAt,value
2023-02-04T00:00:43.452Z,4.01
2023-02-04T00:06:14.486Z,3.83
2023-02-04T00:11:39.465Z,3.74
2023-02-04T00:17:06.471Z,3.67
2023-02-04T00:22:33.454Z,3.59
2023-02-04T00:27:57.484Z,3.58
2023-02-04T00:33:25.490Z,3.48
2023-02-04T00:38:49.646Z,3.48
2023-02-04T00:44:14.479Z,3.36
2023-02-04T00:49:41.591Z,3.31
2023-02-04T00:55:07.477Z,3.26
2023-02-04T01:00:33.698Z,3.22
2023-02-04T01:06:01.635Z,3.19
2023-02-04T01:11:26.500Z,2.17
2023-02-04T01:16:51.515Z,1.40
2023-02-04T01:22:19.500Z,1.10
2023-02-04T01:27:44.551Z,0.87
2023-02-04T01:33:08.517Z,0.76
2023-02-04T01:38:36.501Z,0.74
2023-02-04T01:44:01.525Z,0.74
2023-02-04T01:49:27.535Z,0.74
2023-02-04T01:54:54.552Z,0.74
2023-02-04T02:00:24.498Z,0.79
2023-02-04T02:05:54.532Z,0.83
2023-02-04T02:11:22.581Z,0.95
2023-02-04T02:16:46.577Z,1.09
2023-02-04T02:22:16.515Z,1.10
2023-02-04T02:27:43.601Z,1.18
2023-02-04T02:33:08.524Z,1.23
2023-02-04T02:38:35.587Z,1.24
2023-02-04T02:44:03.584Z,1.23
2023-02-04T02:49:31.521Z,1.26
2023-02-04T02:54:57.554Z,1.29
2023-02-04T03:00:31.782Z,1.31
2023-02-04T03:05:59.514Z,1.29
2023-02-04T03:11:24.661Z,1.31
2023-02-04T03:16:52.539Z,1.34
2023-02-04T03:22:17.651Z,1.27
2023-02-04T03:27:42.580Z,1.28
2023-02-04T03:33:09.548Z,1.27
2023-02-04T03:38:34.546Z,1.20
2023-02-04T03:43:58.565Z,1.19
2023-02-04T03:49:26.572Z,1.17
2023-02-04T03:54:50.569Z,1.11
2023-02-04T04:00:16.556Z,1.02
2023-02-04T04:05:43.584Z,0.96
2023-02-04T04:11:08.568Z,0.89
2023-02-04T04:16:32.581Z,0.81
2023-02-04T04:22:00.570Z,0.76
2023-02-04T04:27:24.602Z,0.69
2023-02-04T04:32:49.588Z,0.63
2023-02-04T04:38:16.593Z,0.59
2023-02-04T04:43:41.560Z,0.53
2023-02-04T04:49:05.581Z,0.53
2023-02-04T04:54:33.639Z,0.53
2023-02-04T04:59:58.587Z,0.53
2023-02-04T05:05:23.573Z,0.51
2023-02-04T05:10:50.573Z,0.50
2023-02-04T05:16:18.632Z,0.51
2023-02-04T05:21:42.612Z,0.47
2023-02-04T05:27:10.575Z,0.44
2023-02-04T05:32:34.592Z,0.40
2023-02-04T05:37:59.602Z,0.35
2023-02-04T05:43:26.618Z,0.28
2023-02-04T05:48:51.595Z,0.18
2023-02-04T05:54:16.605Z,0.10
2023-02-04T05:59:44.591Z,0.07
2023-02-04T06:05:08.588Z,0.03
2023-02-04T06:10:33.764Z,0.05
2023-02-04T06:16:00.668Z,0.04
2023-02-04T06:21:25.603Z,0.05
2023-02-04T06:26:49.640Z,0.05
2023-02-04T06:32:17.623Z,0.05
2023-02-04T06:37:41.654Z,0.01
2023-02-04T06:43:06.647Z,-0.03
2023-02-04T06:48:33.806Z,-0.04
2023-02-04T06:53:59.622Z,-0.03
2023-02-04T06:59:23.607Z,-0.04
2023-02-04T07:04:51.609Z,-0.03
2023-02-04T07:10:23.734Z,-0.02
2023-02-04T07:15:48.724Z,0.04
2023-02-04T07:21:15.645Z,0.07
2023-02-04T07:26:40.646Z,0.16
2023-02-04T07:32:04.809Z,0.14
2023-02-04T07:37:32.668Z,0.13
2023-02-04T07:42:56.643Z,0.17
2023-02-04T07:48:23.632Z,0.18
2023-02-04T07:53:50.653Z,0.22
2023-02-04T07:59:15.818Z,0.20
2023-02-04T08:04:39.618Z,0.23
2023-02-04T08:10:13.654Z,0.22
2023-02-04T08:15:38.646Z,0.24
2023-02-04T08:21:02.633Z,0.34
2023-02-04T08:26:30.637Z,0.41
2023-02-04T08:31:56.837Z,0.45
2023-02-04T08:37:21.686Z,0.51
2023-02-04T08:42:48.625Z,0.58
2023-02-04T08:48:14.649Z,0.67
2023-02-04T08:53:38.714Z,0.79
2023-02-04T08:59:06.688Z,0.84
2023-02-04T09:04:31.700Z,0.84
2023-02-04T09:10:02.674Z,0.84
2023-02-04T09:15:30.701Z,0.85
2023-02-04T09:20:54.694Z,0.89
2023-02-04T09:26:19.709Z,0.81
2023-02-04T09:31:48.972Z,0.81
2023-02-04T09:37:13.710Z,0.87
2023-02-04T09:42:40.687Z,0.99
2023-02-04T09:48:11.716Z,1.08
2023-02-04T09:53:39.720Z,1.10
2023-02-04T09:58:57.690Z,1.11
2023-02-04T10:04:25.706Z,1.15
2023-02-04T10:09:56.756Z,1.14
2023-02-04T10:15:25.673Z,1.10
2023-02-04T10:20:53.696Z,1.18
2023-02-04T10:26:20.683Z,1.20
2023-02-04T10:31:50.878Z,1.24
2023-02-04T10:37:29.717Z,1.27
2023-02-04T10:43:07.779Z,1.34
2023-02-04T10:48:33.733Z,1.40
2023-02-04T10:54:13.694Z,1.50
2023-02-04T10:59:39.783Z,1.54
2023-02-04T11:05:04.736Z,1.53
2023-02-04T11:10:44.708Z,1.49
2023-02-04T11:16:34.711Z,1.63
2023-02-04T11:22:00.722Z,1.76
2023-02-04T11:27:40.769Z,1.82
2023-02-04T11:33:11.770Z,2.07
2023-02-04T11:38:41.728Z,2.26
2023-02-04T11:44:09.741Z,2.47
2023-02-04T11:49:35.725Z,2.42
2023-02-04T11:55:04.740Z,2.35
2023-02-04T12:00:34.784Z,2.33
2023-02-04T12:06:01.791Z,2.22
2023-02-04T12:11:27.767Z,2.03
2023-02-04T12:16:59.729Z,1.94
2023-02-04T12:22:25.070Z,2.01
2023-02-04T12:27:49.752Z,2.10
2023-02-04T12:33:16.767Z,2.23
2023-02-04T12:38:41.740Z,2.54
2023-02-04T12:44:07.735Z,2.69
2023-02-04T12:49:35.757Z,2.67
2023-02-04T12:54:59.769Z,2.69
2023-02-04T13:00:26.779Z,2.54
2023-02-04T13:05:53.788Z,2.47
2023-02-04T13:11:18.794Z,2.42
2023-02-04T13:16:42.749Z,2.51
2023-02-04T13:22:10.760Z,3.02
2023-02-04T13:27:34.789Z,3.17
2023-02-04T13:32:59.797Z,3.14
2023-02-04T13:38:26.917Z,3.10
2023-02-04T13:43:51.768Z,2.81
2023-02-04T13:49:16.765Z,2.82
2023-02-04T13:54:44.812Z,2.57
2023-02-04T14:00:11.901Z,2.64
2023-02-04T14:05:36.790Z,2.74
2023-02-04T14:11:11.794Z,2.71
2023-02-04T14:16:37.966Z,2.74
2023-02-04T14:22:01.788Z,2.75
2023-02-04T14:27:29.807Z,2.69
2023-02-04T14:32:53.785Z,2.68
2023-02-04T14:38:22.818Z,2.56
2023-02-04T14:43:49.795Z,3.20
2023-02-04T14:49:14.869Z,3.36
2023-02-04T14:54:39.886Z,3.20
2023-02-04T15:00:07.827Z,2.95
2023-02-04T15:05:32.820Z,2.83
2023-02-04T15:11:03.825Z,2.60
2023-02-04T15:16:31.856Z,2.47
2023-02-04T15:21:55.795Z,2.43
2023-02-04T15:27:20.824Z,2.25
2023-02-04T15:32:49.819Z,2.08
2023-02-04T15:38:14.820Z,2.00
2023-02-04T15:43:38.863Z,1.89
2023-02-04T15:49:06.825Z,1.77
2023-02-04T15:54:30.850Z,1.68
2023-02-04T15:59:55.833Z,1.61
2023-02-04T16:05:24.822Z,1.43
2023-02-04T16:10:55.849Z,1.31
2023-02-04T16:16:20.933Z,1.22
2023-02-04T16:21:47.908Z,1.12
2023-02-04T16:27:12.864Z,1.06
2023-02-04T16:32:39.923Z,0.95
2023-02-04T16:38:07.871Z,0.87
2023-02-04T16:43:31.868Z,0.80
2023-02-04T16:48:56.845Z,0.77
2023-02-04T16:54:23.848Z,0.71
2023-02-04T16:59:48.889Z,0.77
2023-02-04T17:05:20.942Z,0.82
2023-02-04T17:11:07.840Z,0.69
2023-02-04T17:16:32.870Z,0.58
2023-02-04T17:21:57.845Z,0.44
2023-02-04T17:27:25.851Z,0.36
2023-02-04T17:32:49.923Z,0.23
2023-02-04T17:38:14.883Z,0.15
2023-02-04T17:43:43.863Z,0.07
2023-02-04T17:49:08.871Z,-0.01
2023-02-04T17:54:34.214Z,-0.10
2023-02-04T18:00:01.888Z,-0.20
2023-02-04T18:05:30.936Z,-0.28
2023-02-04T18:11:03.885Z,-0.35
2023-02-04T18:16:34.930Z,-0.43
2023-02-04T18:22:00.896Z,-0.49
2023-02-04T18:27:28.905Z,-0.53
2023-02-04T18:32:56.895Z,-0.51
2023-02-04T18:38:31.899Z,-0.52
2023-02-04T18:43:57.918Z,-0.50
2023-02-04T18:49:33.899Z,-0.48
2023-02-04T18:55:02.900Z,-0.47
2023-02-04T19:00:35.155Z,-0.47
2023-02-04T19:06:03.913Z,-0.49
2023-02-04T19:11:47.891Z,-0.52
2023-02-04T19:17:31.913Z,-0.57
2023-02-04T19:23:00.895Z,-0.62
2023-02-04T19:28:37.908Z,-0.68
2023-02-04T19:34:04.984Z,-0.73
2023-02-04T19:39:44.891Z,-0.80
2023-02-04T19:45:09.929Z,-0.84
2023-02-04T19:50:37.932Z,-0.91
2023-02-04T19:56:06.948Z,-0.95
2023-02-04T20:01:31.970Z,-0.98
2023-02-04T20:06:59.904Z,-0.98
2023-02-04T20:12:27.904Z,-0.99
2023-02-04T20:17:54.912Z,-1.01
2023-02-04T20:23:30.961Z,-1.00
2023-02-04T20:28:58.923Z,-1.02
2023-02-04T20:34:28.948Z,-1.05
2023-02-04T20:39:54.931Z,-1.11
2023-02-04T20:45:42.945Z,-1.20
2023-02-04T20:51:10.910Z,-1.26
2023-02-04T20:56:38.957Z,-1.35
2023-02-04T21:02:05.937Z,-1.43
2023-02-04T21:07:31.956Z,-1.47
2023-02-04T21:12:55.928Z,-1.50
2023-02-04T21:18:23.996Z,-1.47
2023-02-04T21:23:47.945Z,-1.45
2023-02-04T21:29:12.957Z,-1.42
2023-02-04T21:34:39.967Z,-1.40
2023-02-04T21:40:05.187Z,-1.38
2023-02-04T21:45:29.978Z,-1.36
2023-02-04T21:50:57.937Z,-1.34
2023-02-04T21:56:23.945Z,-1.32
2023-02-04T22:01:48.978Z,-1.29
2023-02-04T22:07:16.986Z,-1.28
2023-02-04T22:12:47.970Z,-1.25
2023-02-04T22:18:12.963Z,-1.22
2023-02-04T22:23:39.968Z,-1.19
2023-02-04T22:29:04.987Z,-1.20
2023-02-04T22:34:29.003Z,-1.17
2023-02-04T22:39:56.981Z,-1.16
2023-02-04T22:45:22.055Z,-1.18
2023-02-04T22:50:46.997Z,-1.22
2023-02-04T22:56:13.991Z,-1.25
2023-02-04T23:01:39.009Z,-1.29
2023-02-04T23:07:02.981Z,-1.31
2023-02-04T23:12:31.009Z,-1.41
2023-02-04T23:17:55.013Z,-1.39
2023-02-04T23:23:23.961Z,-1.39
2023-02-04T23:28:50.975Z,-1.37
2023-02-04T23:34:16.010Z,-1.36
2023-02-04T23:39:40.984Z,-1.36
2023-02-04T23:45:11.019Z,-1.36
2023-02-04T23:50:36.032Z,-1.37
2023-02-04T23:56:00.980Z,-1.37
